createdAt,value
2022-09-26T00:02:18.940Z,4.17
2022-09-26T00:04:45.680Z,5.53
2022-09-26T00:07:12.204Z,3.87
2022-09-26T00:09:38.937Z,5.47
2022-09-26T00:12:05.693Z,4.10
2022-09-26T00:14:32.205Z,4.30
2022-09-26T00:16:59.266Z,4.50
2022-09-26T00:19:25.798Z,5.50
2022-09-26T00:21:52.368Z,4.00
2022-09-26T00:24:18.855Z,3.57
2022-09-26T00:26:45.390Z,3.90
2022-09-26T00:29:12.450Z,3.77
2022-09-26T00:31:41.024Z,3.50
2022-09-26T00:34:07.560Z,3.73
2022-09-26T00:36:38.323Z,3.70
2022-09-26T00:39:06.904Z,5.17
2022-09-26T00:41:33.412Z,3.87
2022-09-26T00:43:59.932Z,4.10
2022-09-26T00:46:43.793Z,3.63
2022-09-26T00:49:36.145Z,3.63
2022-09-26T00:52:07.091Z,4.03
2022-09-26T00:54:33.914Z,3.07
2022-09-26T00:57:04.155Z,3.17
2022-09-26T00:59:39.440Z,3.30
2022-09-26T01:02:06.047Z,3.30
2022-09-26T01:04:34.263Z,3.43
2022-09-26T01:07:02.066Z,3.50
2022-09-26T01:09:28.980Z,3.33
2022-09-26T01:11:55.431Z,3.20
2022-09-26T01:14:21.998Z,3.23
2022-09-26T01:16:49.045Z,3.40
2022-09-26T01:19:18.331Z,3.30
2022-09-26T01:22:12.167Z,3.33
2022-09-26T01:24:55.513Z,3.17
2022-09-26T01:27:25.077Z,3.07
2022-09-26T01:30:10.235Z,3.73
2022-09-26T01:33:07.616Z,3.53
2022-09-26T01:35:43.233Z,3.93
2022-09-26T01:38:17.608Z,3.40
2022-09-26T01:40:49.977Z,2.83
2022-09-26T01:43:23.858Z,3.77
2022-09-26T01:45:53.501Z,3.50
2022-09-26T01:48:51.516Z,3.20
2022-09-26T01:51:24.307Z,3.33
2022-09-26T01:54:01.627Z,3.07
2022-09-26T01:56:29.949Z,4.43
2022-09-26T01:59:08.858Z,5.23
2022-09-26T02:01:39.205Z,3.20
2022-09-26T02:04:11.104Z,3.37
2022-09-26T02:06:41.980Z,3.40
2022-09-26T02:09:11.111Z,3.20
2022-09-26T02:11:38.908Z,3.13
2022-09-26T02:14:18.705Z,3.73
2022-09-26T02:16:50.746Z,3.90
2022-09-26T02:19:21.921Z,3.67
2022-09-26T02:21:48.419Z,3.67
2022-09-26T02:24:14.968Z,3.50
2022-09-26T02:26:42.379Z,3.03
2022-09-26T02:29:09.823Z,3.50
2022-09-26T02:31:38.530Z,3.33
2022-09-26T02:34:05.034Z,4.27
2022-09-26T02:36:34.640Z,3.27
2022-09-26T02:39:01.425Z,3.17
2022-09-26T02:41:29.576Z,3.17
2022-09-26T02:44:15.059Z,3.43
2022-09-26T02:47:02.984Z,3.00
2022-09-26T02:49:52.682Z,3.20
2022-09-26T02:52:21.805Z,2.70
2022-09-26T02:55:31.240Z,3.30
2022-09-26T02:58:24.453Z,3.40
2022-09-26T03:01:10.657Z,4.70
2022-09-26T03:03:47.789Z,3.30
2022-09-26T03:06:16.164Z,3.43
2022-09-26T03:08:47.292Z,2.77
2022-09-26T03:11:16.772Z,2.83
2022-09-26T03:13:43.276Z,3.40
2022-09-26T03:16:09.836Z,3.17
2022-09-26T03:18:40.334Z,4.50
2022-09-26T03:21:07.114Z,2.83
2022-09-26T03:23:33.610Z,2.97
2022-09-26T03:26:20.452Z,3.10
2022-09-26T03:28:46.976Z,3.00
2022-09-26T03:31:13.530Z,2.97
2022-09-26T03:33:40.455Z,3.07
2022-09-26T03:36:07.534Z,3.30
2022-09-26T03:38:34.099Z,3.00
2022-09-26T03:41:00.727Z,3.10
2022-09-26T03:43:27.770Z,3.07
2022-09-26T03:45:55.162Z,3.20
2022-09-26T03:48:21.730Z,3.27
2022-09-26T03:50:48.230Z,2.87
2022-09-26T03:53:14.893Z,3.30
2022-09-26T03:55:41.380Z,2.90
2022-09-26T03:58:07.863Z,2.97
2022-09-26T04:00:34.846Z,2.80
2022-09-26T04:03:04.760Z,2.90
2022-09-26T04:05:31.431Z,3.20
2022-09-26T04:07:58.978Z,3.10
2022-09-26T04:10:25.472Z,3.00
2022-09-26T04:12:52.024Z,2.80
2022-09-26T04:15:18.513Z,3.10
2022-09-26T04:17:44.985Z,3.27
2022-09-26T04:20:11.908Z,3.10
2022-09-26T04:22:38.400Z,2.90
2022-09-26T04:25:05.253Z,3.20
2022-09-26T04:27:31.731Z,3.00
2022-09-26T04:29:58.278Z,3.00
2022-09-26T04:32:24.897Z,3.30
2022-09-26T04:34:51.383Z,3.10
2022-09-26T04:37:21.040Z,3.33
2022-09-26T04:39:48.095Z,3.67
2022-09-26T04:42:14.623Z,3.30
2022-09-26T04:44:41.090Z,3.30
2022-09-26T04:47:08.327Z,2.80
2022-09-26T04:49:34.855Z,2.93
2022-09-26T04:52:01.541Z,3.17
2022-09-26T04:54:28.035Z,2.80
2022-09-26T04:56:54.574Z,2.90
2022-09-26T04:59:21.085Z,3.30
2022-09-26T05:01:48.093Z,2.97
2022-09-26T05:04:14.659Z,2.70
2022-09-26T05:06:41.130Z,3.20
2022-09-26T05:09:07.641Z,3.00
2022-09-26T05:11:34.111Z,4.50
2022-09-26T05:14:02.731Z,4.40
2022-09-26T05:16:29.922Z,4.63
2022-09-26T05:18:56.932Z,4.00
2022-09-26T05:21:23.487Z,5.70
2022-09-26T05:24:08.708Z,4.70
2022-09-26T05:26:43.211Z,5.17
2022-09-26T05:29:09.830Z,5.50
2022-09-26T05:31:37.713Z,6.03
2022-09-26T05:34:05.399Z,5.90
2022-09-26T05:36:31.964Z,5.93
2022-09-26T05:38:58.563Z,6.47
2022-09-26T05:41:28.088Z,5.90
2022-09-26T05:43:54.552Z,5.77
2022-09-26T05:46:21.544Z,5.73
2022-09-26T05:48:48.097Z,5.23
2022-09-26T05:51:15.940Z,5.10
2022-09-26T05:53:43.662Z,5.93
2022-09-26T05:56:12.778Z,5.90
2022-09-26T05:58:42.714Z,5.43
2022-09-26T06:01:09.127Z,6.23
2022-09-26T06:03:35.812Z,6.23
2022-09-26T06:06:12.615Z,5.43
2022-09-26T06:08:39.823Z,5.17
2022-09-26T06:11:08.003Z,4.50
2022-09-26T06:13:34.648Z,6.27
2022-09-26T06:16:06.100Z,8.73
2022-09-26T06:18:36.087Z,6.17
2022-09-26T06:21:03.634Z,9.23
2022-09-26T06:23:31.468Z,6.00
2022-09-26T06:25:59.057Z,10.13
2022-09-26T06:28:26.501Z,9.13
2022-09-26T06:30:53.804Z,4.53
2022-09-26T06:33:20.619Z,4.73
2022-09-26T06:35:47.209Z,4.43
2022-09-26T06:38:13.852Z,4.50
2022-09-26T06:40:40.402Z,3.87
2022-09-26T06:43:06.938Z,4.03
2022-09-26T06:45:33.435Z,5.33
2022-09-26T06:48:03.323Z,5.13
2022-09-26T06:50:29.845Z,3.97
2022-09-26T06:52:56.347Z,6.30
2022-09-26T06:55:22.851Z,4.33
2022-09-26T06:57:49.359Z,3.43
2022-09-26T07:00:15.945Z,4.30
2022-09-26T07:03:01.239Z,4.13
2022-09-26T07:05:27.741Z,5.73
2022-09-26T07:07:54.958Z,4.07
2022-09-26T07:10:21.554Z,3.67
2022-09-26T07:12:48.347Z,3.30
2022-09-26T07:15:18.811Z,4.33
2022-09-26T07:17:46.196Z,3.63
2022-09-26T07:20:14.023Z,3.30
2022-09-26T07:22:40.543Z,3.63
2022-09-26T07:25:07.540Z,4.10
2022-09-26T07:27:34.019Z,3.43
2022-09-26T07:30:00.591Z,4.30
2022-09-26T07:32:27.151Z,3.30
2022-09-26T07:34:53.690Z,3.90
2022-09-26T07:37:20.231Z,3.30
2022-09-26T07:39:51.195Z,3.13
2022-09-26T07:42:21.714Z,3.70
2022-09-26T07:47:53.464Z,3.77
2022-09-26T07:50:19.991Z,3.23
2022-09-26T07:52:47.714Z,2.97
2022-09-26T07:55:20.002Z,2.97
2022-09-26T07:57:49.444Z,3.37
2022-09-26T08:00:17.746Z,2.77
2022-09-26T08:02:46.638Z,2.90
2022-09-26T08:05:20.139Z,3.30
2022-09-26T08:07:47.465Z,2.70
2022-09-26T08:10:20.204Z,3.30
2022-09-26T08:12:47.401Z,2.63
2022-09-26T08:15:13.987Z,3.03
2022-09-26T08:17:40.880Z,4.67
2022-09-26T08:20:07.797Z,2.73
2022-09-26T08:22:34.484Z,2.90
2022-09-26T08:25:00.958Z,4.37
2022-09-26T08:27:32.193Z,4.57
2022-09-26T08:29:59.077Z,3.50
2022-09-26T08:32:25.602Z,4.33
2022-09-26T08:34:53.033Z,4.67
2022-09-26T08:37:21.001Z,3.77
2022-09-26T08:39:48.213Z,3.07
2022-09-26T08:42:28.682Z,3.07
2022-09-26T08:44:58.042Z,3.57
2022-09-26T08:47:42.798Z,3.93
2022-09-26T08:50:23.469Z,3.63
2022-09-26T08:52:56.540Z,2.60
2022-09-26T08:55:31.572Z,2.77
2022-09-26T08:58:04.881Z,2.90
2022-09-26T09:00:32.369Z,2.73
2022-09-26T09:03:17.225Z,2.60
2022-09-26T09:05:46.104Z,3.60
2022-09-26T09:08:21.950Z,3.00
2022-09-26T09:10:57.461Z,3.93
2022-09-26T09:13:54.137Z,2.80
2022-09-26T09:16:32.720Z,2.50
2022-09-26T09:19:12.168Z,3.20
2022-09-26T09:22:07.950Z,3.93
2022-09-26T09:24:53.753Z,2.90
2022-09-26T09:30:19.916Z,2.70
2022-09-26T09:33:11.671Z,2.57
2022-09-26T09:35:44.111Z,4.93
2022-09-26T09:38:19.732Z,2.30
2022-09-26T09:40:48.311Z,3.67
2022-09-26T09:43:28.736Z,4.70
2022-09-26T09:46:03.368Z,2.40
2022-09-26T09:48:29.963Z,3.57
2022-09-26T09:51:04.034Z,3.63
2022-09-26T09:53:44.349Z,2.63
2022-09-26T09:56:25.908Z,3.00
2022-09-26T09:59:16.673Z,2.17
2022-09-26T10:01:44.700Z,2.60
2022-09-26T10:04:20.716Z,3.30
2022-09-26T10:06:48.396Z,4.00
2022-09-26T10:09:37.617Z,2.43
2022-09-26T10:12:19.180Z,3.97
2022-09-26T10:14:52.974Z,2.93
2022-09-26T10:17:20.407Z,5.73
2022-09-26T10:19:47.223Z,2.67
2022-09-26T10:22:29.903Z,4.10
2022-09-26T10:25:00.902Z,2.93
2022-09-26T10:27:36.780Z,3.47
2022-09-26T10:30:19.396Z,2.43
2022-09-26T10:32:55.437Z,2.47
2022-09-26T10:35:42.055Z,3.37
2022-09-26T10:38:18.395Z,2.17
2022-09-26T10:40:53.234Z,3.23
2022-09-26T10:43:22.123Z,2.40
2022-09-26T10:45:49.551Z,3.47
2022-09-26T10:48:21.895Z,2.93
2022-09-26T10:50:50.929Z,4.60
2022-09-26T10:53:19.354Z,6.03
2022-09-26T10:55:53.236Z,4.07
2022-09-26T10:58:25.137Z,4.53
2022-09-26T11:00:52.925Z,5.63
2022-09-26T11:03:37.836Z,5.23
2022-09-26T11:06:04.352Z,5.80
2022-09-26T11:08:34.440Z,5.33
2022-09-26T11:11:04.037Z,4.83
2022-09-26T11:13:54.321Z,4.00
2022-09-26T11:16:21.020Z,6.17
2022-09-26T11:18:50.521Z,4.50
2022-09-26T11:21:46.409Z,4.03
2022-09-26T11:24:30.353Z,3.90
2022-09-26T11:27:19.341Z,4.27
2022-09-26T11:30:12.820Z,5.63
2022-09-26T11:32:47.639Z,5.60
2022-09-26T11:35:29.702Z,7.33
2022-09-26T11:38:24.138Z,8.67
2022-09-26T11:41:02.794Z,5.97
2022-09-26T11:43:51.752Z,5.27
2022-09-26T11:46:36.964Z,5.33
2022-09-26T11:49:21.411Z,4.00
2022-09-26T11:52:07.213Z,6.17
2022-09-26T11:54:33.833Z,5.30
2022-09-26T11:57:37.981Z,5.33
2022-09-26T12:00:24.525Z,5.57
2022-09-26T12:02:58.311Z,6.87
2022-09-26T12:05:45.549Z,5.63
2022-09-26T12:08:47.217Z,5.87
2022-09-26T12:11:19.505Z,6.97
2022-09-26T12:14:03.598Z,5.37
2022-09-26T12:16:33.081Z,6.63
2022-09-26T12:19:16.407Z,5.67
2022-09-26T12:22:22.781Z,7.97
2022-09-26T12:25:27.032Z,4.23
2022-09-26T12:28:16.365Z,4.93
2022-09-26T12:30:47.662Z,5.77
2022-09-26T12:33:52.583Z,4.73
2022-09-26T12:37:03.988Z,5.00
2022-09-26T12:39:30.613Z,7.40
2022-09-26T12:42:26.536Z,4.77
2022-09-26T12:45:11.888Z,4.63
2022-09-26T12:47:48.918Z,5.40
2022-09-26T12:50:41.747Z,5.60
2022-09-26T12:53:45.779Z,5.17
2022-09-26T12:56:57.275Z,6.73
2022-09-26T12:59:50.971Z,5.90
2022-09-26T13:02:46.863Z,4.13
2022-09-26T13:05:47.353Z,4.63
2022-09-26T13:08:33.170Z,5.47
2022-09-26T13:11:32.742Z,6.17
2022-09-26T13:14:30.412Z,5.63
2022-09-26T13:17:14.278Z,6.67
2022-09-26T13:19:52.764Z,6.17
2022-09-26T13:22:41.360Z,10.20
2022-09-26T13:25:10.720Z,7.43
2022-09-26T13:27:51.273Z,7.00
2022-09-26T13:30:24.356Z,5.53
2022-09-26T13:33:05.487Z,6.53
2022-09-26T13:35:35.657Z,6.20
2022-09-26T13:38:25.217Z,7.80
2022-09-26T13:41:18.582Z,4.67
2022-09-26T13:44:09.075Z,3.70
2022-09-26T13:46:53.907Z,4.93
2022-09-26T13:49:28.272Z,3.90
2022-09-26T13:52:05.385Z,5.23
2022-09-26T13:54:48.408Z,4.67
2022-09-26T13:58:04.304Z,5.00
2022-09-26T14:00:31.352Z,4.13
2022-09-26T14:03:09.430Z,3.70
2022-09-26T14:05:42.149Z,4.23
2022-09-26T14:08:42.863Z,4.60
2022-09-26T14:11:24.507Z,4.40
2022-09-26T14:14:19.323Z,3.23
2022-09-26T14:16:46.736Z,6.43
2022-09-26T14:19:28.822Z,3.13
2022-09-26T14:22:23.316Z,3.50
2022-09-26T14:24:56.111Z,3.90
2022-09-26T14:27:42.198Z,4.73
2022-09-26T14:30:30.705Z,7.77
2022-09-26T14:33:02.824Z,3.37
2022-09-26T14:35:33.854Z,4.00
2022-09-26T14:38:14.141Z,6.30
2022-09-26T14:40:40.704Z,3.97
2022-09-26T14:43:14.870Z,4.37
2022-09-26T14:45:45.913Z,7.20
2022-09-26T14:48:21.477Z,4.83
2022-09-26T14:50:53.082Z,6.30
2022-09-26T14:53:41.333Z,5.30
2022-09-26T14:56:12.174Z,5.23
2022-09-26T14:58:38.604Z,4.00
2022-09-26T15:01:12.138Z,4.90
2022-09-26T15:03:38.702Z,4.57
2022-09-26T15:06:05.419Z,3.03
2022-09-26T15:08:35.069Z,3.73
2022-09-26T15:11:03.730Z,3.33
2022-09-26T15:13:39.141Z,4.70
2022-09-26T15:16:14.921Z,3.97
2022-09-26T15:18:43.652Z,2.73
2022-09-26T15:21:28.393Z,3.63
2022-09-26T15:23:58.000Z,2.63
2022-09-26T15:26:32.303Z,2.67
2022-09-26T15:28:58.875Z,3.20
2022-09-26T15:31:41.764Z,3.50
2022-09-26T15:34:19.169Z,3.23
2022-09-26T15:36:48.619Z,3.67
2022-09-26T15:39:44.593Z,2.70
2022-09-26T15:42:35.941Z,2.60
2022-09-26T15:45:29.996Z,3.27
2022-09-26T15:48:01.204Z,3.43
2022-09-26T15:50:49.501Z,3.73
2022-09-26T15:53:40.272Z,3.77
2022-09-26T15:56:13.616Z,4.07
2022-09-26T15:58:40.033Z,2.53
2022-09-26T16:01:10.516Z,2.93
2022-09-26T16:03:40.983Z,3.20
2022-09-26T16:06:16.090Z,2.87
2022-09-26T16:08:42.636Z,2.17
2022-09-26T16:11:09.181Z,2.30
2022-09-26T16:13:37.438Z,2.63
2022-09-26T16:16:08.902Z,3.07
2022-09-26T16:18:38.885Z,2.93
2022-09-26T16:21:15.271Z,2.67
2022-09-26T16:23:46.432Z,3.03
2022-09-26T16:26:22.489Z,3.00
2022-09-26T16:28:52.921Z,3.27
2022-09-26T16:31:30.332Z,3.83
2022-09-26T16:33:58.418Z,1.97
2022-09-26T16:36:25.953Z,2.43
2022-09-26T16:39:03.182Z,4.27
2022-09-26T16:42:00.087Z,3.03
2022-09-26T16:44:34.358Z,4.47
2022-09-26T16:47:05.594Z,2.83
2022-09-26T16:49:42.907Z,2.83
2022-09-26T16:52:10.689Z,2.57
2022-09-26T16:54:37.183Z,6.33
2022-09-26T16:57:03.983Z,2.43
2022-09-26T16:59:32.238Z,2.00
2022-09-26T17:01:59.728Z,2.80
2022-09-26T17:04:31.185Z,5.27
2022-09-26T17:07:09.458Z,2.40
2022-09-26T17:09:36.266Z,2.97
2022-09-26T17:12:05.176Z,2.17
2022-09-26T17:14:40.081Z,5.33
2022-09-26T17:17:08.308Z,2.07
2022-09-26T17:19:38.170Z,2.20
2022-09-26T17:22:06.618Z,2.43
2022-09-26T17:24:33.157Z,2.70
2022-09-26T17:27:01.440Z,2.30
2022-09-26T17:29:33.464Z,3.63
2022-09-26T17:32:00.110Z,2.60
2022-09-26T17:34:28.302Z,2.97
2022-09-26T17:36:56.652Z,2.13
2022-09-26T17:39:25.905Z,1.80
2022-09-26T17:41:53.301Z,1.93
2022-09-26T17:44:21.975Z,2.00
2022-09-26T17:46:50.200Z,2.00
2022-09-26T17:49:27.937Z,2.37
2022-09-26T17:51:56.782Z,2.43
2022-09-26T17:54:29.013Z,2.30
2022-09-26T17:56:56.414Z,2.00
2022-09-26T17:59:24.330Z,2.63
2022-09-26T18:01:52.709Z,1.90
2022-09-26T18:04:19.461Z,2.53
2022-09-26T18:06:46.068Z,3.10
2022-09-26T18:09:15.628Z,2.67
2022-09-26T18:11:43.795Z,5.83
2022-09-26T18:14:15.135Z,1.93
2022-09-26T18:16:46.523Z,1.90
2022-09-26T18:19:13.221Z,2.67
2022-09-26T18:21:42.535Z,2.10
2022-09-26T18:24:18.623Z,2.20
2022-09-26T18:26:50.710Z,1.97
2022-09-26T18:29:26.460Z,1.83
2022-09-26T18:31:53.267Z,2.53
2022-09-26T18:34:20.511Z,2.20
2022-09-26T18:36:48.068Z,2.30
2022-09-26T18:39:14.693Z,2.33
2022-09-26T18:41:41.327Z,2.70
2022-09-26T18:44:10.460Z,2.13
2022-09-26T18:46:37.768Z,2.20
2022-09-26T18:49:06.351Z,1.97
2022-09-26T18:51:33.024Z,2.10
2022-09-26T18:54:01.585Z,2.00
2022-09-26T18:56:46.918Z,2.23
2022-09-26T18:59:14.738Z,2.40
2022-09-26T19:01:42.677Z,2.00
2022-09-26T19:04:16.022Z,2.07
2022-09-26T19:06:43.427Z,2.40
2022-09-26T19:09:13.042Z,2.60
2022-09-26T19:11:39.585Z,2.20
2022-09-26T19:14:14.965Z,2.53
2022-09-26T19:16:45.334Z,2.27
2022-09-26T19:19:12.011Z,1.83
2022-09-26T19:21:41.904Z,2.00
2022-09-26T19:24:27.221Z,2.47
2022-09-26T19:26:55.572Z,2.10
2022-09-26T19:29:35.416Z,2.50
2022-09-26T19:32:02.710Z,2.60
2022-09-26T19:34:32.571Z,1.90
2022-09-26T19:37:01.293Z,2.20
2022-09-26T19:39:27.826Z,1.80
2022-09-26T19:41:54.352Z,2.10
2022-09-26T19:44:20.848Z,1.97
2022-09-26T19:46:47.466Z,1.80
2022-09-26T19:49:16.692Z,4.00
2022-09-26T19:51:43.243Z,2.00
2022-09-26T19:54:15.698Z,1.90
2022-09-26T19:56:43.148Z,2.10
2022-09-26T19:59:13.862Z,1.80
2022-09-26T20:01:43.401Z,1.80
2022-09-26T20:04:16.570Z,1.77
2022-09-26T20:06:43.523Z,2.17
2022-09-26T20:09:18.073Z,1.87
2022-09-26T20:11:44.883Z,1.93
2022-09-26T20:14:23.763Z,1.90
2022-09-26T20:17:11.009Z,1.90
2022-09-26T20:19:38.921Z,2.13
2022-09-26T20:22:07.381Z,1.80
2022-09-26T20:24:35.620Z,2.07
2022-09-26T20:27:03.085Z,1.90
2022-09-26T20:29:29.619Z,1.90
2022-09-26T20:31:56.208Z,1.90
2022-09-26T20:34:22.781Z,1.70
2022-09-26T20:36:50.042Z,2.17
2022-09-26T20:39:19.554Z,3.23
2022-09-26T20:41:46.085Z,1.70
2022-09-26T20:44:15.470Z,2.67
2022-09-26T20:46:52.623Z,2.10
2022-09-26T20:49:25.711Z,1.90
2022-09-26T20:51:52.235Z,1.73
2022-09-26T20:54:32.165Z,1.87
2022-09-26T20:56:58.823Z,1.90
2022-09-26T20:59:25.645Z,1.90
2022-09-26T21:01:52.963Z,2.27
2022-09-26T21:04:20.263Z,1.97
2022-09-26T21:06:46.831Z,1.70
2022-09-26T21:09:18.715Z,1.80
2022-09-26T21:11:48.940Z,1.77
2022-09-26T21:14:16.516Z,1.70
2022-09-26T21:16:47.850Z,2.03
2022-09-26T21:19:24.168Z,1.70
2022-09-26T21:21:51.359Z,1.90
2022-09-26T21:24:25.895Z,2.00
2022-09-26T21:26:52.405Z,1.80
2022-09-26T21:29:19.102Z,2.17
2022-09-26T21:31:48.469Z,1.70
2022-09-26T21:34:22.286Z,1.70
2022-09-26T21:36:49.207Z,1.90
2022-09-26T21:39:16.820Z,2.40
2022-09-26T21:41:43.699Z,1.87
2022-09-26T21:44:30.968Z,1.70
2022-09-26T21:46:57.500Z,1.93
2022-09-26T21:49:24.604Z,1.97
2022-09-26T21:51:54.011Z,1.90
2022-09-26T21:54:33.384Z,1.80
2022-09-26T21:57:25.616Z,2.23
2022-09-26T21:59:52.131Z,2.30
2022-09-26T22:02:18.680Z,1.97
2022-09-26T22:04:45.266Z,1.70
2022-09-26T22:07:11.773Z,1.90
2022-09-26T22:09:38.311Z,1.67
2022-09-26T22:12:04.876Z,1.80
2022-09-26T22:14:31.735Z,2.00
2022-09-26T22:16:59.043Z,1.80
2022-09-26T22:19:27.346Z,2.13
2022-09-26T22:21:54.636Z,2.00
2022-09-26T22:24:21.134Z,1.90
2022-09-26T22:26:47.758Z,1.80
2022-09-26T22:29:14.428Z,1.70
2022-09-26T22:31:41.769Z,1.80
2022-09-26T22:34:08.381Z,2.00
2022-09-26T22:36:34.938Z,1.80
2022-09-26T22:39:01.574Z,2.10
2022-09-26T22:41:28.103Z,1.80
2022-09-26T22:43:54.681Z,1.93
2022-09-26T22:46:21.587Z,1.90
2022-09-26T22:48:48.884Z,1.90
2022-09-26T22:51:15.976Z,1.77
2022-09-26T22:53:42.846Z,1.80
2022-09-26T22:56:13.055Z,1.77
2022-09-26T22:58:44.457Z,1.60
2022-09-26T23:01:12.695Z,1.80
2022-09-26T23:03:39.372Z,1.60
2022-09-26T23:06:06.261Z,2.00
2022-09-26T23:08:33.555Z,1.80
2022-09-26T23:11:01.121Z,1.80
2022-09-26T23:13:28.334Z,1.87
2022-09-26T23:15:55.073Z,1.80
2022-09-26T23:18:21.777Z,1.60
2022-09-26T23:20:48.280Z,2.13
2022-09-26T23:23:14.839Z,1.50
2022-09-26T23:25:48.380Z,1.70
2022-09-26T23:28:15.217Z,1.80
2022-09-26T23:30:42.221Z,3.10
2022-09-26T23:33:09.064Z,1.77
2022-09-26T23:35:35.607Z,1.77
2022-09-26T23:38:05.025Z,1.90
2022-09-26T23:40:32.362Z,1.73
2022-09-26T23:42:59.114Z,1.90
2022-09-26T23:45:26.799Z,1.70
2022-09-26T23:47:53.435Z,1.50
2022-09-26T23:50:19.998Z,2.63
2022-09-26T23:52:46.548Z,2.10
2022-09-26T23:55:13.942Z,1.70
2022-09-26T23:57:40.794Z,1.70
